sensor_id;sensor_type;location;lat;lon;timestamp;pressure;altitude;pressure_sealevel;temperature;humidity
54248;BME280;40161;39.768;2.722;2023-08-17T00:01:26;100811.06;;;30.50;29.35
54248;BME280;40161;39.768;2.722;2023-08-17T00:03:51;100840.44;;;30.58;30.29
54248;BME280;40161;39.768;2.722;2023-08-17T00:06:17;100832.47;;;30.57;29.44
54248;BME280;40161;39.768;2.722;2023-08-17T00:08:43;100842.56;;;30.63;30.38
54248;BME280;40161;39.768;2.722;2023-08-17T00:11:08;100806.84;;;30.40;29.88
54248;BME280;40161;39.768;2.722;2023-08-17T00:13:34;100820.59;;;30.53;30.24
54248;BME280;40161;39.768;2.722;2023-08-17T00:16:00;100839.91;;;30.54;29.61
54248;BME280;40161;39.768;2.722;2023-08-17T00:18:26;100832.94;;;30.49;30.99
54248;BME280;40161;39.768;2.722;2023-08-17T00:20:51;100821.03;;;30.45;29.96
54248;BME280;40161;39.768;2.722;2023-08-17T00:23:17;100810.16;;;30.38;30.81
54248;BME280;40161;39.768;2.722;2023-08-17T00:25:43;100768.47;;;30.07;31.34
54248;BME280;40161;39.768;2.722;2023-08-17T00:28:08;100802.38;;;30.27;30.81
54248;BME280;40161;39.768;2.722;2023-08-17T00:30:34;100842.69;;;30.48;30.70
54248;BME280;40161;39.768;2.722;2023-08-17T00:33:02;100821.84;;;30.46;30.29
54248;BME280;40161;39.768;2.722;2023-08-17T00:35:28;100833.16;;;30.46;30.02
54248;BME280;40161;39.768;2.722;2023-08-17T00:37:53;100750.66;;;30.27;28.66
54248;BME280;40161;39.768;2.722;2023-08-17T00:40:20;100772.13;;;30.39;30.06
54248;BME280;40161;39.768;2.722;2023-08-17T00:42:46;100805.94;;;30.54;30.07
54248;BME280;40161;39.768;2.722;2023-08-17T00:45:11;100759.31;;;30.18;30.43
54248;BME280;40161;39.768;2.722;2023-08-17T00:47:37;100802.03;;;30.46;30.24
54248;BME280;40161;39.768;2.722;2023-08-17T00:50:03;100744.34;;;30.12;30.01
54248;BME280;40161;39.768;2.722;2023-08-17T00:52:30;100782.66;;;30.39;29.07
54248;BME280;40161;39.768;2.722;2023-08-17T00:54:57;100788.34;;;30.44;29.59
54248;BME280;40161;39.768;2.722;2023-08-17T00:57:23;100785.22;;;30.37;28.67
54248;BME280;40161;39.768;2.722;2023-08-17T00:59:50;100784.47;;;30.42;29.28
54248;BME280;40161;39.768;2.722;2023-08-17T01:02:17;100780.16;;;30.46;29.46
54248;BME280;40161;39.768;2.722;2023-08-17T01:04:42;100784.81;;;30.49;28.00
54248;BME280;40161;39.768;2.722;2023-08-17T01:07:08;100794.09;;;30.56;28.40
54248;BME280;40161;39.768;2.722;2023-08-17T01:09:34;100781.44;;;30.51;28.18
54248;BME280;40161;39.768;2.722;2023-08-17T01:14:39;100767.81;;;30.49;28.51
54248;BME280;40161;39.768;2.722;2023-08-17T01:17:22;100774.84;;;30.65;29.06
54248;BME280;40161;39.768;2.722;2023-08-17T01:19:50;100753.56;;;30.38;29.51
54248;BME280;40161;39.768;2.722;2023-08-17T01:22:20;100717.94;;;30.20;28.58
54248;BME280;40161;39.768;2.722;2023-08-17T01:24:47;100731.44;;;30.37;29.03
54248;BME280;40161;39.768;2.722;2023-08-17T01:27:12;100768.66;;;30.61;29.84
54248;BME280;40161;39.768;2.722;2023-08-17T01:29:38;100765.00;;;30.55;28.90
54248;BME280;40161;39.768;2.722;2023-08-17T01:32:09;100769.16;;;30.60;28.89
54248;BME280;40161;39.768;2.722;2023-08-17T01:34:53;100762.22;;;30.61;28.21
54248;BME280;40161;39.768;2.722;2023-08-17T01:37:22;100760.09;;;30.56;27.67
54248;BME280;40161;39.768;2.722;2023-08-17T01:39:52;100774.31;;;30.61;28.49
54248;BME280;40161;39.768;2.722;2023-08-17T01:42:22;100759.56;;;30.51;26.91
54248;BME280;40161;39.768;2.722;2023-08-17T01:44:49;100769.16;;;30.60;27.08
54248;BME280;40161;39.768;2.722;2023-08-17T01:47:14;100763.47;;;30.54;27.85
54248;BME280;40161;39.768;2.722;2023-08-17T01:49:40;100763.19;;;30.52;28.41
54248;BME280;40161;39.768;2.722;2023-08-17T01:52:05;100767.16;;;30.71;28.12
54248;BME280;40161;39.768;2.722;2023-08-17T01:54:31;100771.72;;;30.95;27.78
54248;BME280;40161;39.768;2.722;2023-08-17T01:56:57;100777.81;;;30.82;27.24
54248;BME280;40161;39.768;2.722;2023-08-17T01:59:22;100752.72;;;30.64;28.21
54248;BME280;40161;39.768;2.722;2023-08-17T02:01:48;100716.22;;;30.34;29.13
54248;BME280;40161;39.768;2.722;2023-08-17T02:04:14;100725.25;;;30.38;29.33
54248;BME280;40161;39.768;2.722;2023-08-17T02:06:40;100753.44;;;30.53;29.35
54248;BME280;40161;39.768;2.722;2023-08-17T02:09:06;100740.28;;;30.50;30.16
54248;BME280;40161;39.768;2.722;2023-08-17T02:11:31;100730.91;;;30.33;31.31
54248;BME280;40161;39.768;2.722;2023-08-17T02:13:57;100728.25;;;30.23;31.64
54248;BME280;40161;39.768;2.722;2023-08-17T02:16:22;100761.81;;;30.42;31.45
54248;BME280;40161;39.768;2.722;2023-08-17T02:18:48;100692.19;;;29.87;32.13
54248;BME280;40161;39.768;2.722;2023-08-17T02:21:13;100726.78;;;30.02;32.61
54248;BME280;40161;39.768;2.722;2023-08-17T02:23:39;100718.69;;;29.89;33.97
54248;BME280;40161;39.768;2.722;2023-08-17T02:26:04;100727.69;;;29.88;33.78
54248;BME280;40161;39.768;2.722;2023-08-17T02:28:30;100765.88;;;30.03;35.67
54248;BME280;40161;39.768;2.722;2023-08-17T02:30:56;100776.38;;;29.97;37.69
54248;BME280;40161;39.768;2.722;2023-08-17T02:33:22;100719.53;;;29.69;38.34
54248;BME280;40161;39.768;2.722;2023-08-17T02:35:51;100765.84;;;29.98;38.65
54248;BME280;40161;39.768;2.722;2023-08-17T02:38:17;100714.31;;;29.62;38.54
54248;BME280;40161;39.768;2.722;2023-08-17T02:40:42;100735.41;;;29.61;39.10
54248;BME280;40161;39.768;2.722;2023-08-17T02:43:08;100696.84;;;29.38;39.56
54248;BME280;40161;39.768;2.722;2023-08-17T02:45:34;100735.47;;;29.46;39.14
54248;BME280;40161;39.768;2.722;2023-08-17T02:47:59;100731.25;;;29.36;39.68
54248;BME280;40161;39.768;2.722;2023-08-17T02:50:25;100754.91;;;29.39;40.72
54248;BME280;40161;39.768;2.722;2023-08-17T02:52:50;100715.75;;;29.05;40.82
54248;BME280;40161;39.768;2.722;2023-08-17T02:55:16;100718.56;;;29.05;40.96
54248;BME280;40161;39.768;2.722;2023-08-17T02:57:41;100730.34;;;29.04;40.37
54248;BME280;40161;39.768;2.722;2023-08-17T03:00:07;100757.25;;;29.20;40.31
54248;BME280;40161;39.768;2.722;2023-08-17T03:02:33;100716.78;;;28.88;40.01
54248;BME280;40161;39.768;2.722;2023-08-17T03:04:58;100723.53;;;28.75;40.81
54248;BME280;40161;39.768;2.722;2023-08-17T03:07:24;100753.91;;;28.80;40.86
54248;BME280;40161;39.768;2.722;2023-08-17T03:09:49;100732.19;;;28.51;41.38
54248;BME280;40161;39.768;2.722;2023-08-17T03:12:15;100733.66;;;28.47;41.52
54248;BME280;40161;39.768;2.722;2023-08-17T03:14:40;100775.66;;;28.74;41.26
54248;BME280;40161;39.768;2.722;2023-08-17T03:17:06;100751.84;;;28.60;41.03
54248;BME280;40161;39.768;2.722;2023-08-17T03:19:31;100728.59;;;28.51;40.74
54248;BME280;40161;39.768;2.722;2023-08-17T03:21:57;100783.50;;;28.85;42.96
54248;BME280;40161;39.768;2.722;2023-08-17T03:24:22;100738.91;;;28.54;42.30
54248;BME280;40161;39.768;2.722;2023-08-17T03:26:48;100749.41;;;28.53;41.91
54248;BME280;40161;39.768;2.722;2023-08-17T03:29:13;100720.63;;;28.34;42.27
54248;BME280;40161;39.768;2.722;2023-08-17T03:31:39;100773.44;;;28.49;41.95
54248;BME280;40161;39.768;2.722;2023-08-17T03:34:04;100746.53;;;28.33;40.82
54248;BME280;40161;39.768;2.722;2023-08-17T03:36:30;100765.91;;;28.40;41.45
54248;BME280;40161;39.768;2.722;2023-08-17T03:38:55;100766.16;;;28.42;40.58
54248;BME280;40161;39.768;2.722;2023-08-17T03:41:21;100738.66;;;28.22;40.41
54248;BME280;40161;39.768;2.722;2023-08-17T03:43:49;100745.53;;;28.21;39.72
54248;BME280;40161;39.768;2.722;2023-08-17T03:46:14;100765.50;;;28.32;40.55
54248;BME280;40161;39.768;2.722;2023-08-17T03:48:40;100755.47;;;28.16;41.89
54248;BME280;40161;39.768;2.722;2023-08-17T03:51:05;100761.41;;;28.04;42.78
54248;BME280;40161;39.768;2.722;2023-08-17T03:53:31;100735.72;;;27.72;42.87
54248;BME280;40161;39.768;2.722;2023-08-17T03:55:56;100745.97;;;27.84;43.51
54248;BME280;40161;39.768;2.722;2023-08-17T03:58:22;100751.31;;;27.82;44.25
54248;BME280;40161;39.768;2.722;2023-08-17T04:00:51;100722.22;;;27.61;44.17
54248;BME280;40161;39.768;2.722;2023-08-17T04:03:18;100751.34;;;27.58;45.18
54248;BME280;40161;39.768;2.722;2023-08-17T04:05:43;100727.53;;;27.44;44.82
54248;BME280;40161;39.768;2.722;2023-08-17T04:08:09;100708.50;;;27.39;44.58
54248;BME280;40161;39.768;2.722;2023-08-17T04:10:34;100695.50;;;27.18;43.93
54248;BME280;40161;39.768;2.722;2023-08-17T04:13:00;100749.47;;;27.40;44.42
54248;BME280;40161;39.768;2.722;2023-08-17T04:15:25;100785.00;;;27.62;44.00
54248;BME280;40161;39.768;2.722;2023-08-17T04:17:51;100748.28;;;27.32;44.24
54248;BME280;40161;39.768;2.722;2023-08-17T04:20:16;100779.22;;;27.41;44.59
54248;BME280;40161;39.768;2.722;2023-08-17T04:22:43;100775.72;;;26.74;46.89
54248;BME280;40161;39.768;2.722;2023-08-17T04:25:09;100804.59;;;27.17;46.09
54248;BME280;40161;39.768;2.722;2023-08-17T04:27:35;100785.53;;;27.12;45.80
54248;BME280;40161;39.768;2.722;2023-08-17T04:30:01;100761.66;;;26.98;46.31
54248;BME280;40161;39.768;2.722;2023-08-17T04:32:26;100790.22;;;27.15;46.68
54248;BME280;40161;39.768;2.722;2023-08-17T04:34:52;100790.78;;;26.95;47.46
54248;BME280;40161;39.768;2.722;2023-08-17T04:37:17;100810.31;;;26.99;47.13
54248;BME280;40161;39.768;2.722;2023-08-17T04:39:43;100807.44;;;27.08;46.76
54248;BME280;40161;39.768;2.722;2023-08-17T04:42:09;100813.91;;;26.99;46.96
54248;BME280;40161;39.768;2.722;2023-08-17T04:44:34;100769.97;;;26.69;47.92
54248;BME280;40161;39.768;2.722;2023-08-17T04:47:00;100798.84;;;26.79;47.75
54248;BME280;40161;39.768;2.722;2023-08-17T04:49:26;100806.09;;;26.70;48.62
54248;BME280;40161;39.768;2.722;2023-08-17T04:51:52;100803.88;;;26.74;48.08
54248;BME280;40161;39.768;2.722;2023-08-17T04:54:18;100793.84;;;26.73;48.42
54248;BME280;40161;39.768;2.722;2023-08-17T04:56:43;100762.97;;;26.64;48.10
54248;BME280;40161;39.768;2.722;2023-08-17T04:59:09;100759.50;;;26.27;49.32
54248;BME280;40161;39.768;2.722;2023-08-17T05:01:34;100803.47;;;26.58;48.60
54248;BME280;40161;39.768;2.722;2023-08-17T05:04:01;100742.78;;;26.23;49.04
54248;BME280;40161;39.768;2.722;2023-08-17T05:06:28;100805.69;;;26.54;48.34
54248;BME280;40161;39.768;2.722;2023-08-17T05:08:53;100775.88;;;26.28;48.83
54248;BME280;40161;39.768;2.722;2023-08-17T05:11:19;100776.94;;;26.40;48.27
54248;BME280;40161;39.768;2.722;2023-08-17T05:13:45;100768.97;;;26.39;48.42
54248;BME280;40161;39.768;2.722;2023-08-17T05:16:10;100808.44;;;26.63;48.41
54248;BME280;40161;39.768;2.722;2023-08-17T05:18:36;100820.22;;;26.52;49.15
54248;BME280;40161;39.768;2.722;2023-08-17T05:21:01;100781.63;;;26.43;48.30
54248;BME280;40161;39.768;2.722;2023-08-17T05:23:27;100790.50;;;26.60;48.06
54248;BME280;40161;39.768;2.722;2023-08-17T05:25:52;100775.75;;;26.65;46.96
54248;BME280;40161;39.768;2.722;2023-08-17T05:28:18;100812.38;;;26.89;46.44
54248;BME280;40161;39.768;2.722;2023-08-17T05:30:43;100764.34;;;26.69;46.08
54248;BME280;40161;39.768;2.722;2023-08-17T05:33:09;100746.06;;;26.64;46.40
54248;BME280;40161;39.768;2.722;2023-08-17T05:35:34;100818.72;;;27.08;46.79
54248;BME280;40161;39.768;2.722;2023-08-17T05:38:00;100814.81;;;27.06;46.26
54248;BME280;40161;39.768;2.722;2023-08-17T05:40:28;100772.59;;;26.72;46.86
54248;BME280;40161;39.768;2.722;2023-08-17T05:42:54;100823.69;;;26.80;47.96
54248;BME280;40161;39.768;2.722;2023-08-17T05:45:20;100823.47;;;26.60;48.97
54248;BME280;40161;39.768;2.722;2023-08-17T05:47:45;100833.50;;;26.51;49.90
54248;BME280;40161;39.768;2.722;2023-08-17T05:50:11;100804.34;;;26.21;50.83
54248;BME280;40161;39.768;2.722;2023-08-17T05:52:36;100811.34;;;26.35;50.30
54248;BME280;40161;39.768;2.722;2023-08-17T05:55:02;100824.56;;;26.53;50.33
54248;BME280;40161;39.768;2.722;2023-08-17T05:57:27;100810.50;;;26.53;50.27
54248;BME280;40161;39.768;2.722;2023-08-17T05:59:53;100779.00;;;26.31;50.20
54248;BME280;40161;39.768;2.722;2023-08-17T06:02:18;100835.28;;;26.73;50.34
54248;BME280;40161;39.768;2.722;2023-08-17T06:04:44;100799.56;;;26.55;49.93
54248;BME280;40161;39.768;2.722;2023-08-17T06:07:09;100853.25;;;26.85;49.40
54248;BME280;40161;39.768;2.722;2023-08-17T06:09:35;100821.41;;;26.69;49.12
54248;BME280;40161;39.768;2.722;2023-08-17T06:12:00;100824.09;;;26.64;49.93
54248;BME280;40161;39.768;2.722;2023-08-17T06:14:26;100848.78;;;26.60;51.20
54248;BME280;40161;39.768;2.722;2023-08-17T06:16:51;100825.81;;;26.61;50.07
54248;BME280;40161;39.768;2.722;2023-08-17T06:19:17;100787.25;;;26.43;50.46
54248;BME280;40161;39.768;2.722;2023-08-17T06:21:43;100873.22;;;26.96;50.37
54248;BME280;40161;39.768;2.722;2023-08-17T06:24:08;100821.53;;;26.75;50.33
54248;BME280;40161;39.768;2.722;2023-08-17T06:26:34;100859.88;;;27.06;50.40
54248;BME280;40161;39.768;2.722;2023-08-17T06:28:59;100836.34;;;26.85;49.72
54248;BME280;40161;39.768;2.722;2023-08-17T06:31:25;100860.56;;;26.91;51.68
54248;BME280;40161;39.768;2.722;2023-08-17T06:33:53;100868.19;;;27.00;51.41
54248;BME280;40161;39.768;2.722;2023-08-17T06:36:19;100827.59;;;26.83;51.62
54248;BME280;40161;39.768;2.722;2023-08-17T06:38:45;100808.56;;;26.78;51.21
54248;BME280;40161;39.768;2.722;2023-08-17T06:41:10;100857.81;;;27.06;52.33
54248;BME280;40161;39.768;2.722;2023-08-17T06:43:36;100829.50;;;26.77;55.31
54248;BME280;40161;39.768;2.722;2023-08-17T06:46:01;100856.94;;;26.91;55.07
54248;BME280;40161;39.768;2.722;2023-08-17T06:48:28;100863.31;;;27.01;54.28
54248;BME280;40161;39.768;2.722;2023-08-17T06:50:53;100809.50;;;26.74;53.20
54248;BME280;40161;39.768;2.722;2023-08-17T06:53:19;100864.53;;;27.09;54.65
54248;BME280;40161;39.768;2.722;2023-08-17T06:55:44;100848.28;;;27.04;54.76
54248;BME280;40161;39.768;2.722;2023-08-17T06:58:10;100850.59;;;27.14;55.08
54248;BME280;40161;39.768;2.722;2023-08-17T07:00:36;100850.72;;;27.20;55.58
54248;BME280;40161;39.768;2.722;2023-08-17T07:03:04;100808.25;;;26.99;55.05
54248;BME280;40161;39.768;2.722;2023-08-17T07:05:29;100854.75;;;27.28;55.54
54248;BME280;40161;39.768;2.722;2023-08-17T07:07:56;100843.00;;;27.30;55.16
54248;BME280;40161;39.768;2.722;2023-08-17T07:10:22;100833.59;;;27.33;55.13
54248;BME280;40161;39.768;2.722;2023-08-17T07:12:48;100823.09;;;27.33;55.71
54248;BME280;40161;39.768;2.722;2023-08-17T07:15:13;100840.19;;;27.54;55.89
54248;BME280;40161;39.768;2.722;2023-08-17T07:17:40;100836.41;;;27.57;56.39
54248;BME280;40161;39.768;2.722;2023-08-17T07:20:06;100873.44;;;27.88;60.18
54248;BME280;40161;39.768;2.722;2023-08-17T07:22:32;100875.69;;;27.99;63.49
54248;BME280;40161;39.768;2.722;2023-08-17T07:24:58;100857.81;;;28.02;65.76
54248;BME280;40161;39.768;2.722;2023-08-17T07:27:24;100830.66;;;27.90;69.26
54248;BME280;40161;39.768;2.722;2023-08-17T07:29:50;100835.13;;;27.97;72.14
54248;BME280;40161;39.768;2.722;2023-08-17T07:32:15;100875.91;;;28.10;71.30
54248;BME280;40161;39.768;2.722;2023-08-17T07:34:41;100840.31;;;27.98;72.45
54248;BME280;40161;39.768;2.722;2023-08-17T07:37:06;100792.09;;;27.72;73.65
54248;BME280;40161;39.768;2.722;2023-08-17T07:39:33;100864.81;;;28.07;73.66
54248;BME280;40161;39.768;2.722;2023-08-17T07:41:58;100827.25;;;27.86;73.36
54248;BME280;40161;39.768;2.722;2023-08-17T07:44:24;100858.69;;;28.08;72.94
54248;BME280;40161;39.768;2.722;2023-08-17T07:46:49;100847.69;;;28.10;72.32
54248;BME280;40161;39.768;2.722;2023-08-17T07:49:15;100821.34;;;27.99;70.86
54248;BME280;40161;39.768;2.722;2023-08-17T07:51:41;100820.19;;;28.05;69.65
54248;BME280;40161;39.768;2.722;2023-08-17T07:54:07;100854.78;;;28.35;69.56
54248;BME280;40161;39.768;2.722;2023-08-17T07:56:32;100849.28;;;28.41;69.84
54248;BME280;40161;39.768;2.722;2023-08-17T07:58:58;100829.22;;;28.24;69.26
54248;BME280;40161;39.768;2.722;2023-08-17T08:01:23;100813.19;;;28.15;68.82
54248;BME280;40161;39.768;2.722;2023-08-17T08:03:49;100810.44;;;28.21;68.06
54248;BME280;40161;39.768;2.722;2023-08-17T08:06:15;100859.19;;;28.51;67.60
54248;BME280;40161;39.768;2.722;2023-08-17T08:08:40;100848.09;;;28.48;68.37
54248;BME280;40161;39.768;2.722;2023-08-17T08:11:06;100868.91;;;28.65;68.64
54248;BME280;40161;39.768;2.722;2023-08-17T08:13:32;100852.00;;;28.50;68.98
54248;BME280;40161;39.768;2.722;2023-08-17T08:16:00;100821.34;;;28.43;69.71
54248;BME280;40161;39.768;2.722;2023-08-17T08:18:26;100852.19;;;28.61;69.11
54248;BME280;40161;39.768;2.722;2023-08-17T08:20:52;100826.81;;;28.47;66.02
54248;BME280;40161;39.768;2.722;2023-08-17T08:23:17;100826.41;;;28.54;63.83
54248;BME280;40161;39.768;2.722;2023-08-17T08:25:43;100824.16;;;28.58;62.43
54248;BME280;40161;39.768;2.722;2023-08-17T08:28:09;100862.84;;;29.02;64.43
54248;BME280;40161;39.768;2.722;2023-08-17T08:30:34;100846.06;;;28.98;67.14
54248;BME280;40161;39.768;2.722;2023-08-17T08:33:01;100867.47;;;29.20;68.16
54248;BME280;40161;39.768;2.722;2023-08-17T08:35:28;100856.66;;;29.18;67.71
54248;BME280;40161;39.768;2.722;2023-08-17T08:37:54;100825.06;;;28.99;69.14
54248;BME280;40161;39.768;2.722;2023-08-17T08:40:27;100824.06;;;29.02;68.38
54248;BME280;40161;39.768;2.722;2023-08-17T08:42:53;100846.91;;;29.19;70.72
54248;BME280;40161;39.768;2.722;2023-08-17T08:45:20;100844.34;;;29.21;71.63
54248;BME280;40161;39.768;2.722;2023-08-17T08:47:46;100847.06;;;29.30;71.76
54248;BME280;40161;39.768;2.722;2023-08-17T08:50:17;100808.75;;;29.09;71.00
54248;BME280;40161;39.768;2.722;2023-08-17T08:52:57;100795.72;;;28.97;70.98
54248;BME280;40161;39.768;2.722;2023-08-17T08:55:27;100857.16;;;29.37;70.80
54248;BME280;40161;39.768;2.722;2023-08-17T08:57:56;100830.31;;;29.27;71.19
54248;BME280;40161;39.768;2.722;2023-08-17T09:00:22;100856.09;;;29.55;72.02
54248;BME280;40161;39.768;2.722;2023-08-17T09:02:48;100822.19;;;29.34;71.65
54248;BME280;40161;39.768;2.722;2023-08-17T09:05:14;100820.19;;;29.41;71.95
54248;BME280;40161;39.768;2.722;2023-08-17T09:07:42;100835.19;;;29.47;70.97
54248;BME280;40161;39.768;2.722;2023-08-17T09:10:09;100834.41;;;29.46;71.75
54248;BME280;40161;39.768;2.722;2023-08-17T09:12:35;100843.03;;;29.57;71.44
54248;BME280;40161;39.768;2.722;2023-08-17T09:15:00;100875.63;;;29.73;71.36
54248;BME280;40161;39.768;2.722;2023-08-17T09:17:27;100850.16;;;29.53;71.48
54248;BME280;40161;39.768;2.722;2023-08-17T09:19:53;100845.44;;;29.44;71.47
54248;BME280;40161;39.768;2.722;2023-08-17T09:22:36;100862.25;;;29.53;72.38
54248;BME280;40161;39.768;2.722;2023-08-17T09:25:01;100863.31;;;29.56;71.92
54248;BME280;40161;39.768;2.722;2023-08-17T09:27:27;100878.88;;;29.66;72.63
54248;BME280;40161;39.768;2.722;2023-08-17T09:30:01;100860.56;;;29.62;72.07
54248;BME280;40161;39.768;2.722;2023-08-17T09:32:30;100845.72;;;29.67;72.02
54248;BME280;40161;39.768;2.722;2023-08-17T09:34:55;100842.91;;;29.67;71.44
54248;BME280;40161;39.768;2.722;2023-08-17T09:37:21;100877.59;;;29.88;71.15
54248;BME280;40161;39.768;2.722;2023-08-17T09:39:46;100872.72;;;29.88;71.13
54248;BME280;40161;39.768;2.722;2023-08-17T09:42:14;100867.50;;;29.81;71.29
54248;BME280;40161;39.768;2.722;2023-08-17T09:44:42;100880.13;;;29.86;71.91
54248;BME280;40161;39.768;2.722;2023-08-17T09:47:07;100873.47;;;29.89;71.27
54248;BME280;40161;39.768;2.722;2023-08-17T09:49:33;100844.31;;;29.77;70.66
54248;BME280;40161;39.768;2.722;2023-08-17T09:52:02;100876.56;;;30.11;70.49
54248;BME280;40161;39.768;2.722;2023-08-17T09:54:30;100877.03;;;30.10;70.32
54248;BME280;40161;39.768;2.722;2023-08-17T09:56:58;100843.22;;;29.95;69.60
54248;BME280;40161;39.768;2.722;2023-08-17T09:59:23;100846.38;;;30.02;69.91
54248;BME280;40161;39.768;2.722;2023-08-17T10:01:50;100824.25;;;30.01;69.90
54248;BME280;40161;39.768;2.722;2023-08-17T10:04:23;100861.31;;;30.29;69.29
54248;BME280;40161;39.768;2.722;2023-08-17T10:07:00;100841.56;;;30.14;69.54
54248;BME280;40161;39.768;2.722;2023-08-17T10:09:31;100863.38;;;30.29;69.42
54248;BME280;40161;39.768;2.722;2023-08-17T10:12:03;100877.84;;;30.36;69.51
54248;BME280;40161;39.768;2.722;2023-08-17T10:14:37;100870.19;;;30.42;69.60
54248;BME280;40161;39.768;2.722;2023-08-17T10:17:09;100869.59;;;30.33;69.86
54248;BME280;40161;39.768;2.722;2023-08-17T10:19:43;100845.34;;;30.26;69.78
54248;BME280;40161;39.768;2.722;2023-08-17T10:22:22;100852.59;;;30.33;69.91
54248;BME280;40161;39.768;2.722;2023-08-17T10:24:49;100875.84;;;30.42;70.06
54248;BME280;40161;39.768;2.722;2023-08-17T10:27:16;100876.41;;;30.46;70.65
54248;BME280;40161;39.768;2.722;2023-08-17T10:29:43;100853.44;;;30.39;70.62
54248;BME280;40161;39.768;2.722;2023-08-17T10:32:09;100863.31;;;30.55;70.37
54248;BME280;40161;39.768;2.722;2023-08-17T10:34:36;100822.69;;;30.26;69.34
54248;BME280;40161;39.768;2.722;2023-08-17T10:37:04;100873.94;;;30.60;69.15
54248;BME280;40161;39.768;2.722;2023-08-17T10:39:30;100860.56;;;30.60;69.27
54248;BME280;40161;39.768;2.722;2023-08-17T10:41:57;100876.34;;;30.72;68.65
54248;BME280;40161;39.768;2.722;2023-08-17T10:44:46;100873.78;;;30.74;68.53
54248;BME280;40161;39.768;2.722;2023-08-17T10:47:22;100849.81;;;30.70;69.08
54248;BME280;40161;39.768;2.722;2023-08-17T10:50:04;100838.72;;;30.66;68.77
54248;BME280;40161;39.768;2.722;2023-08-17T10:52:32;100858.66;;;30.78;68.15
54248;BME280;40161;39.768;2.722;2023-08-17T10:55:04;100847.47;;;30.68;68.50
54248;BME280;40161;39.768;2.722;2023-08-17T10:57:38;100868.28;;;30.91;68.38
54248;BME280;40161;39.768;2.722;2023-08-17T11:02:43;100864.44;;;30.94;67.87
54248;BME280;40161;39.768;2.722;2023-08-17T11:05:10;100823.56;;;30.75;67.60
54248;BME280;40161;39.768;2.722;2023-08-17T11:07:44;100828.25;;;30.78;66.81
54248;BME280;40161;39.768;2.722;2023-08-17T11:12:44;100837.28;;;30.77;67.19
54248;BME280;40161;39.768;2.722;2023-08-17T11:15:10;100856.97;;;30.97;66.65
54248;BME280;40161;39.768;2.722;2023-08-17T11:17:36;100825.34;;;30.72;66.61
54248;BME280;40161;39.768;2.722;2023-08-17T11:20:02;100859.78;;;30.97;66.53
54248;BME280;40161;39.768;2.722;2023-08-17T11:22:28;100779.38;;;30.46;65.67
54248;BME280;40161;39.768;2.722;2023-08-17T11:24:53;100857.53;;;31.01;65.87
54248;BME280;40161;39.768;2.722;2023-08-17T11:27:20;100870.97;;;31.12;65.88
54248;BME280;40161;39.768;2.722;2023-08-17T11:29:47;100810.25;;;30.81;65.53
54248;BME280;40161;39.768;2.722;2023-08-17T11:32:16;100837.69;;;31.01;65.10
54248;BME280;40161;39.768;2.722;2023-08-17T11:34:42;100855.56;;;31.18;65.04
54248;BME280;40161;39.768;2.722;2023-08-17T11:37:07;100852.97;;;31.20;65.02
54248;BME280;40161;39.768;2.722;2023-08-17T11:39:36;100856.63;;;31.27;64.97
54248;BME280;40161;39.768;2.722;2023-08-17T11:42:01;100822.50;;;31.04;65.18
54248;BME280;40161;39.768;2.722;2023-08-17T11:44:27;100821.50;;;31.13;65.14
54248;BME280;40161;39.768;2.722;2023-08-17T11:46:53;100833.94;;;31.27;64.86
54248;BME280;40161;39.768;2.722;2023-08-17T11:49:18;100862.38;;;31.38;64.70
54248;BME280;40161;39.768;2.722;2023-08-17T11:51:44;100853.38;;;31.39;65.42
54248;BME280;40161;39.768;2.722;2023-08-17T11:54:10;100870.13;;;31.43;64.77
54248;BME280;40161;39.768;2.722;2023-08-17T11:56:37;100862.66;;;31.40;64.50
54248;BME280;40161;39.768;2.722;2023-08-17T11:59:13;100858.69;;;31.26;65.59
54248;BME280;40161;39.768;2.722;2023-08-17T12:01:44;100867.50;;;31.34;65.53
54248;BME280;40161;39.768;2.722;2023-08-17T12:04:10;100845.28;;;31.27;65.15
54248;BME280;40161;39.768;2.722;2023-08-17T12:06:43;100861.34;;;31.35;65.26
54248;BME280;40161;39.768;2.722;2023-08-17T12:09:12;100859.53;;;31.38;65.37
54248;BME280;40161;39.768;2.722;2023-08-17T12:11:40;100833.41;;;31.23;65.35
54248;BME280;40161;39.768;2.722;2023-08-17T12:14:10;100849.47;;;31.37;65.00
54248;BME280;40161;39.768;2.722;2023-08-17T12:16:48;100818.97;;;31.20;65.11
54248;BME280;40161;39.768;2.722;2023-08-17T12:19:14;100803.53;;;31.21;65.35
54248;BME280;40161;39.768;2.722;2023-08-17T12:21:42;100820.59;;;31.33;65.11
54248;BME280;40161;39.768;2.722;2023-08-17T12:24:09;100848.50;;;31.51;65.25
54248;BME280;40161;39.768;2.722;2023-08-17T12:26:41;100763.22;;;30.95;65.27
54248;BME280;40161;39.768;2.722;2023-08-17T12:29:06;100811.50;;;31.23;64.55
54248;BME280;40161;39.768;2.722;2023-08-17T12:31:32;100824.78;;;31.43;64.71
54248;BME280;40161;39.768;2.722;2023-08-17T12:33:59;100828.94;;;31.53;64.22
54248;BME280;40161;39.768;2.722;2023-08-17T12:36:24;100812.66;;;31.48;63.98
54248;BME280;40161;39.768;2.722;2023-08-17T12:38:50;100810.03;;;31.33;63.86
54248;BME280;40161;39.768;2.722;2023-08-17T12:41:15;100851.38;;;31.57;63.39
54248;BME280;40161;39.768;2.722;2023-08-17T12:43:41;100804.06;;;31.26;63.71
54248;BME280;40161;39.768;2.722;2023-08-17T12:46:07;100793.03;;;31.33;63.59
54248;BME280;40161;39.768;2.722;2023-08-17T12:48:32;100817.06;;;31.49;63.17
54248;BME280;40161;39.768;2.722;2023-08-17T12:50:57;100842.09;;;31.56;62.76
54248;BME280;40161;39.768;2.722;2023-08-17T12:53:23;100841.56;;;31.58;63.55
54248;BME280;40161;39.768;2.722;2023-08-17T12:55:48;100800.53;;;31.42;63.47